sensor_id;sensor_type;location;lat;lon;timestamp;pressure;altitude;pressure_sealevel;temperature;humidity
9307;BME280;4691;47.612;7.610;2022-08-11T00:00:08;98886.28;;;23.93;100.00
9307;BME280;4691;47.612;7.610;2022-08-11T00:02:40;98887.13;;;23.87;100.00
9307;BME280;4691;47.612;7.610;2022-08-11T00:05:10;98886.66;;;23.83;100.00
9307;BME280;4691;47.612;7.610;2022-08-11T00:07:51;98887.47;;;23.77;100.00
9307;BME280;4691;47.612;7.610;2022-08-11T00:10:25;98888.50;;;23.76;100.00
9307;BME280;4691;47.612;7.610;2022-08-11T00:12:54;98897.13;;;23.73;100.00
9307;BME280;4691;47.612;7.610;2022-08-11T00:15:24;98881.94;;;23.70;100.00
9307;BME280;4691;47.612;7.610;2022-08-11T00:17:57;98883.19;;;23.68;100.00
9307;BME280;4691;47.612;7.610;2022-08-11T00:20:29;98881.53;;;23.67;100.00
9307;BME280;4691;47.612;7.610;2022-08-11T00:23:01;98880.22;;;23.63;100.00
9307;BME280;4691;47.612;7.610;2022-08-11T00:25:26;98876.66;;;23.62;100.00
9307;BME280;4691;47.612;7.610;2022-08-11T00:27:52;98884.44;;;23.59;100.00
9307;BME280;4691;47.612;7.610;2022-08-11T00:30:17;98881.88;;;23.51;100.00
9307;BME280;4691;47.612;7.610;2022-08-11T00:32:51;98889.81;;;23.45;100.00
9307;BME280;4691;47.612;7.610;2022-08-11T00:35:23;98889.94;;;23.37;100.00
9307;BME280;4691;47.612;7.610;2022-08-11T00:37:52;98890.34;;;23.34;100.00
9307;BME280;4691;47.612;7.610;2022-08-11T00:40:27;98890.72;;;23.24;100.00
9307;BME280;4691;47.612;7.610;2022-08-11T00:43:00;98890.84;;;23.10;100.00
9307;BME280;4691;47.612;7.610;2022-08-11T00:45:45;98889.84;;;22.96;100.00
9307;BME280;4691;47.612;7.610;2022-08-11T00:48:33;98897.31;;;22.87;100.00
9307;BME280;4691;47.612;7.610;2022-08-11T00:51:43;98906.03;;;22.76;100.00
9307;BME280;4691;47.612;7.610;2022-08-11T00:59:25;98899.41;;;22.42;100.00
9307;BME280;4691;47.612;7.610;2022-08-11T01:05:05;98928.41;;;22.13;100.00
9307;BME280;4691;47.612;7.610;2022-08-11T01:16:28;98937.88;;;21.28;100.00
9307;BME280;4691;47.612;7.610;2022-08-11T01:28:54;98935.31;;;20.74;100.00
9307;BME280;4691;47.612;7.610;2022-08-11T01:34:15;98934.78;;;20.56;100.00
9307;BME280;4691;47.612;7.610;2022-08-11T01:46:27;98939.72;;;20.21;100.00
9307;BME280;4691;47.612;7.610;2022-08-11T01:49:05;98941.44;;;20.14;100.00
9307;BME280;4691;47.612;7.610;2022-08-11T01:52:01;98936.38;;;20.11;100.00
9307;BME280;4691;47.612;7.610;2022-08-11T01:54:51;98942.03;;;20.01;100.00
9307;BME280;4691;47.612;7.610;2022-08-11T02:00:26;98937.19;;;19.80;100.00
9307;BME280;4691;47.612;7.610;2022-08-11T02:03:13;98938.91;;;19.73;100.00
9307;BME280;4691;47.612;7.610;2022-08-11T02:06:03;98931.50;;;19.67;100.00
9307;BME280;4691;47.612;7.610;2022-08-11T02:09:10;98926.75;;;19.61;100.00
9307;BME280;4691;47.612;7.610;2022-08-11T02:11:37;98920.31;;;19.53;100.00
9307;BME280;4691;47.612;7.610;2022-08-11T02:14:28;98913.75;;;19.48;100.00
9307;BME280;4691;47.612;7.610;2022-08-11T02:19:47;98900.53;;;19.36;100.00
9307;BME280;4691;47.612;7.610;2022-08-11T02:22:50;98900.41;;;19.30;100.00
9307;BME280;4691;47.612;7.610;2022-08-11T02:28:21;98899.75;;;19.20;100.00
9307;BME280;4691;47.612;7.610;2022-08-11T02:31:12;98899.41;;;19.23;100.00
9307;BME280;4691;47.612;7.610;2022-08-11T02:34:19;98890.94;;;19.18;100.00
9307;BME280;4691;47.612;7.610;2022-08-11T02:37:06;98887.06;;;19.12;100.00
9307;BME280;4691;47.612;7.610;2022-08-11T02:39:46;98877.22;;;19.11;100.00
9307;BME280;4691;47.612;7.610;2022-08-11T02:42:34;98875.59;;;18.93;100.00
9307;BME280;4691;47.612;7.610;2022-08-11T02:45:38;98866.59;;;18.93;100.00
9307;BME280;4691;47.612;7.610;2022-08-11T02:54:07;98868.78;;;18.65;100.00
9307;BME280;4691;47.612;7.610;2022-08-11T02:59:23;98872.00;;;18.52;100.00
9307;BME280;4691;47.612;7.610;2022-08-11T03:10:33;98868.94;;;18.06;100.00
9307;BME280;4691;47.612;7.610;2022-08-11T03:13:15;98867.91;;;17.99;100.00
9307;BME280;4691;47.612;7.610;2022-08-11T03:22:23;98847.25;;;17.90;100.00
9307;BME280;4691;47.612;7.610;2022-08-11T03:24:58;98856.38;;;17.89;100.00
9307;BME280;4691;47.612;7.610;2022-08-11T03:27:38;98845.91;;;17.86;100.00
9307;BME280;4691;47.612;7.610;2022-08-11T03:30:11;98833.16;;;17.78;100.00
9307;BME280;4691;47.612;7.610;2022-08-11T03:35:36;98831.47;;;17.77;100.00
9307;BME280;4691;47.612;7.610;2022-08-11T03:38:10;98825.53;;;17.73;100.00
9307;BME280;4691;47.612;7.610;2022-08-11T03:41:05;98832.97;;;17.71;100.00
9307;BME280;4691;47.612;7.610;2022-08-11T03:52:20;98802.53;;;17.69;100.00
9307;BME280;4691;47.612;7.610;2022-08-11T04:09:54;98800.59;;;17.37;100.00
9307;BME280;4691;47.612;7.610;2022-08-11T04:12:33;98801.09;;;17.32;100.00
9307;BME280;4691;47.612;7.610;2022-08-11T04:18:42;98771.63;;;17.21;100.00
9307;BME280;4691;47.612;7.610;2022-08-11T04:23:59;98759.16;;;17.20;100.00
9307;BME280;4691;47.612;7.610;2022-08-11T04:35:08;98757.47;;;17.19;100.00
9307;BME280;4691;47.612;7.610;2022-08-11T04:40:54;98760.81;;;17.21;100.00
9307;BME280;4691;47.612;7.610;2022-08-11T04:53:01;98750.47;;;17.08;100.00
9307;BME280;4691;47.612;7.610;2022-08-11T04:56:02;98749.78;;;16.98;100.00
9307;BME280;4691;47.612;7.610;2022-08-11T04:58:59;98745.84;;;16.92;100.00
9307;BME280;4691;47.612;7.610;2022-08-11T05:01:54;98729.66;;;16.92;100.00
9307;BME280;4691;47.612;7.610;2022-08-11T05:16:17;98714.16;;;17.03;100.00
9307;BME280;4691;47.612;7.610;2022-08-11T05:19:02;98727.69;;;17.11;100.00
9307;BME280;4691;47.612;7.610;2022-08-11T05:21:53;98735.84;;;17.19;100.00
9307;BME280;4691;47.612;7.610;2022-08-11T05:24:49;98732.81;;;17.22;100.00
9307;BME280;4691;47.612;7.610;2022-08-11T05:28:10;98724.72;;;17.22;100.00
9307;BME280;4691;47.612;7.610;2022-08-11T05:31:07;98737.88;;;17.25;100.00
9307;BME280;4691;47.612;7.610;2022-08-11T05:33:58;98729.78;;;17.25;100.00
9307;BME280;4691;47.612;7.610;2022-08-11T05:36:52;98745.31;;;17.31;100.00
9307;BME280;4691;47.612;7.610;2022-08-11T05:39:22;98750.09;;;17.37;100.00
9307;BME280;4691;47.612;7.610;2022-08-11T05:42:07;98779.16;;;17.44;100.00
9307;BME280;4691;47.612;7.610;2022-08-11T05:45:03;98781.22;;;17.50;100.00
9307;BME280;4691;47.612;7.610;2022-08-11T05:47:48;98788.66;;;17.56;100.00
9307;BME280;4691;47.612;7.610;2022-08-11T05:50:33;98781.59;;;17.63;100.00
9307;BME280;4691;47.612;7.610;2022-08-11T05:53:17;98787.16;;;17.70;100.00
9307;BME280;4691;47.612;7.610;2022-08-11T05:56:06;98775.50;;;17.77;100.00
9307;BME280;4691;47.612;7.610;2022-08-11T05:58:50;98777.75;;;17.82;100.00
9307;BME280;4691;47.612;7.610;2022-08-11T06:01:25;98797.22;;;17.86;100.00
9307;BME280;4691;47.612;7.610;2022-08-11T06:03:53;98799.94;;;17.94;100.00
9307;BME280;4691;47.612;7.610;2022-08-11T06:06:47;98791.13;;;18.00;100.00
9307;BME280;4691;47.612;7.610;2022-08-11T06:09:20;98794.19;;;18.05;100.00
9307;BME280;4691;47.612;7.610;2022-08-11T06:11:47;98801.63;;;18.11;100.00
9307;BME280;4691;47.612;7.610;2022-08-11T06:14:14;98803.31;;;18.20;100.00
9307;BME280;4691;47.612;7.610;2022-08-11T06:16:47;98816.19;;;18.26;100.00
9307;BME280;4691;47.612;7.610;2022-08-11T06:19:13;98816.53;;;18.32;100.00
9307;BME280;4691;47.612;7.610;2022-08-11T06:21:45;98838.00;;;18.33;100.00
9307;BME280;4691;47.612;7.610;2022-08-11T06:24:13;98838.34;;;18.38;100.00
9307;BME280;4691;47.612;7.610;2022-08-11T06:26:47;98844.44;;;18.40;100.00
9307;BME280;4691;47.612;7.610;2022-08-11T06:29:13;98848.66;;;18.43;100.00
9307;BME280;4691;47.612;7.610;2022-08-11T06:31:50;98855.59;;;18.45;100.00
9307;BME280;4691;47.612;7.610;2022-08-11T06:34:39;98862.69;;;18.55;100.00
9307;BME280;4691;47.612;7.610;2022-08-11T06:43:46;98880.84;;;18.79;100.00
9307;BME280;4691;47.612;7.610;2022-08-11T06:46:14;98883.34;;;18.80;100.00
9307;BME280;4691;47.612;7.610;2022-08-11T06:48:42;98880.00;;;18.86;100.00
9307;BME280;4691;47.612;7.610;2022-08-11T06:51:09;98880.81;;;18.95;100.00
9307;BME280;4691;47.612;7.610;2022-08-11T06:53:48;98891.63;;;19.03;100.00
9307;BME280;4691;47.612;7.610;2022-08-11T06:56:20;98886.88;;;19.05;100.00
9307;BME280;4691;47.612;7.610;2022-08-11T06:59:05;98891.63;;;19.11;100.00
9307;BME280;4691;47.612;7.610;2022-08-11T07:04:31;98895.00;;;19.22;100.00
9307;BME280;4691;47.612;7.610;2022-08-11T07:10:32;98896.31;;;19.34;100.00
9307;BME280;4691;47.612;7.610;2022-08-11T07:13:26;98897.31;;;19.41;100.00
9307;BME280;4691;47.612;7.610;2022-08-11T07:16:14;98907.59;;;19.54;100.00
9307;BME280;4691;47.612;7.610;2022-08-11T07:18:42;98903.19;;;19.61;100.00
9307;BME280;4691;47.612;7.610;2022-08-11T07:21:31;98910.78;;;19.74;100.00
9307;BME280;4691;47.612;7.610;2022-08-11T07:24:20;98913.81;;;19.79;100.00
9307;BME280;4691;47.612;7.610;2022-08-11T07:27:07;98918.16;;;19.88;100.00
9307;BME280;4691;47.612;7.610;2022-08-11T07:29:54;98912.38;;;19.99;100.00
9307;BME280;4691;47.612;7.610;2022-08-11T07:32:26;98921.81;;;20.12;100.00
9307;BME280;4691;47.612;7.610;2022-08-11T07:34:59;98905.94;;;20.23;100.00
9307;BME280;4691;47.612;7.610;2022-08-11T07:37:29;98892.13;;;20.33;100.00
9307;BME280;4691;47.612;7.610;2022-08-11T07:39:58;98901.41;;;20.39;100.00
9307;BME280;4691;47.612;7.610;2022-08-11T07:42:27;98885.25;;;20.45;100.00
9307;BME280;4691;47.612;7.610;2022-08-11T07:44:55;98904.94;;;20.48;100.00
9307;BME280;4691;47.612;7.610;2022-08-11T07:47:40;98904.72;;;20.57;100.00
9307;BME280;4691;47.612;7.610;2022-08-11T07:50:25;98903.63;;;20.66;100.00
9307;BME280;4691;47.612;7.610;2022-08-11T07:53:10;98903.00;;;20.79;100.00
9307;BME280;4691;47.612;7.610;2022-08-11T07:55:37;98904.63;;;20.88;100.00
9307;BME280;4691;47.612;7.610;2022-08-11T07:58:03;98905.41;;;20.97;100.00
9307;BME280;4691;47.612;7.610;2022-08-11T08:00:53;98912.25;;;21.08;100.00
9307;BME280;4691;47.612;7.610;2022-08-11T08:03:38;98915.72;;;21.17;100.00
9307;BME280;4691;47.612;7.610;2022-08-11T08:06:25;98916.69;;;21.24;100.00
9307;BME280;4691;47.612;7.610;2022-08-11T08:09:10;98927.06;;;21.43;100.00
9307;BME280;4691;47.612;7.610;2022-08-11T08:11:55;98926.78;;;21.53;100.00
9307;BME280;4691;47.612;7.610;2022-08-11T08:14:40;98933.25;;;21.67;100.00
9307;BME280;4691;47.612;7.610;2022-08-11T08:17:25;98935.31;;;21.80;100.00
9307;BME280;4691;47.612;7.610;2022-08-11T08:20:13;98943.25;;;21.96;100.00
9307;BME280;4691;47.612;7.610;2022-08-11T08:22:41;98935.38;;;22.01;100.00
9307;BME280;4691;47.612;7.610;2022-08-11T08:25:07;98943.91;;;22.13;100.00
9307;BME280;4691;47.612;7.610;2022-08-11T08:27:40;98943.63;;;22.23;100.00
9307;BME280;4691;47.612;7.610;2022-08-11T08:30:08;98947.53;;;22.35;100.00
9307;BME280;4691;47.612;7.610;2022-08-11T08:32:53;98943.66;;;22.44;100.00
9307;BME280;4691;47.612;7.610;2022-08-11T08:35:22;98947.03;;;22.68;100.00
9307;BME280;4691;47.612;7.610;2022-08-11T08:37:51;98936.06;;;22.82;100.00
9307;BME280;4691;47.612;7.610;2022-08-11T08:40:17;98940.69;;;23.03;100.00
9307;BME280;4691;47.612;7.610;2022-08-11T08:42:52;98934.31;;;23.18;100.00
9307;BME280;4691;47.612;7.610;2022-08-11T08:45:19;98928.38;;;23.36;100.00
9307;BME280;4691;47.612;7.610;2022-08-11T08:48:24;98945.66;;;23.50;100.00
9307;BME280;4691;47.612;7.610;2022-08-11T08:54:19;98938.56;;;23.90;100.00
9307;BME280;4691;47.612;7.610;2022-08-11T09:01:08;98944.81;;;24.25;100.00
9307;BME280;4691;47.612;7.610;2022-08-11T09:04:24;98932.09;;;24.46;100.00
9307;BME280;4691;47.612;7.610;2022-08-11T09:14:38;98935.75;;;24.93;100.00
9307;BME280;4691;47.612;7.610;2022-08-11T09:17:45;98938.28;;;25.28;100.00
9307;BME280;4691;47.612;7.610;2022-08-11T09:20:16;98932.38;;;25.44;100.00
9307;BME280;4691;47.612;7.610;2022-08-11T09:22:44;98935.28;;;25.69;100.00
9307;BME280;4691;47.612;7.610;2022-08-11T09:25:32;98924.28;;;25.89;100.00
9307;BME280;4691;47.612;7.610;2022-08-11T09:28:19;98923.88;;;25.92;100.00
9307;BME280;4691;47.612;7.610;2022-08-11T09:30:50;98923.88;;;25.92;100.00
9307;BME280;4691;47.612;7.610;2022-08-11T09:33:18;98919.16;;;26.13;100.00
9307;BME280;4691;47.612;7.610;2022-08-11T09:35:45;98915.66;;;26.31;100.00
9307;BME280;4691;47.612;7.610;2022-08-11T09:38:13;98905.84;;;26.48;100.00
9307;BME280;4691;47.612;7.610;2022-08-11T09:40:58;98904.69;;;27.01;100.00
9307;BME280;4691;47.612;7.610;2022-08-11T09:43:24;98895.44;;;27.20;100.00
9307;BME280;4691;47.612;7.610;2022-08-11T09:46:10;98886.47;;;27.06;100.00
9307;BME280;4691;47.612;7.610;2022-08-11T09:48:39;98884.25;;;27.15;100.00
9307;BME280;4691;47.612;7.610;2022-08-11T09:51:07;98880.22;;;27.43;100.00
9307;BME280;4691;47.612;7.610;2022-08-11T09:53:39;98881.78;;;27.75;100.00
9307;BME280;4691;47.612;7.610;2022-08-11T09:56:09;98878.38;;;28.29;100.00
9307;BME280;4691;47.612;7.610;2022-08-11T09:58:53;98872.41;;;28.62;100.00
9307;BME280;4691;47.612;7.610;2022-08-11T10:01:21;98857.75;;;29.03;100.00
9307;BME280;4691;47.612;7.610;2022-08-11T10:03:55;98853.44;;;29.31;100.00
9307;BME280;4691;47.612;7.610;2022-08-11T10:06:25;98845.75;;;29.57;100.00
9307;BME280;4691;47.612;7.610;2022-08-11T10:09:11;98852.66;;;29.94;100.00
9307;BME280;4691;47.612;7.610;2022-08-11T10:11:40;98831.09;;;30.49;100.00
9307;BME280;4691;47.612;7.610;2022-08-11T10:14:08;98841.44;;;29.61;100.00
9307;BME280;4691;47.612;7.610;2022-08-11T10:16:54;98831.44;;;30.52;100.00
9307;BME280;4691;47.612;7.610;2022-08-11T10:19:21;98812.91;;;30.98;100.00
9307;BME280;4691;47.612;7.610;2022-08-11T10:21:50;98800.75;;;31.55;100.00
9307;BME280;4691;47.612;7.610;2022-08-11T10:24:36;98803.22;;;32.01;100.00
9307;BME280;4691;47.612;7.610;2022-08-11T10:27:21;98781.31;;;31.94;100.00
9307;BME280;4691;47.612;7.610;2022-08-11T10:29:48;98769.75;;;31.97;100.00
9307;BME280;4691;47.612;7.610;2022-08-11T10:32:34;98761.16;;;32.26;100.00
9307;BME280;4691;47.612;7.610;2022-08-11T10:35:20;98772.19;;;31.72;100.00
9307;BME280;4691;47.612;7.610;2022-08-11T10:37:53;98762.84;;;31.78;100.00
9307;BME280;4691;47.612;7.610;2022-08-11T10:40:20;98771.19;;;31.83;100.00
9307;BME280;4691;47.612;7.610;2022-08-11T10:42:50;98754.28;;;32.56;100.00
9307;BME280;4691;47.612;7.610;2022-08-11T10:45:43;98767.72;;;33.22;100.00
9307;BME280;4691;47.612;7.610;2022-08-11T10:48:29;98750.13;;;33.48;100.00
9307;BME280;4691;47.612;7.610;2022-08-11T10:50:56;98746.72;;;33.26;100.00
9307;BME280;4691;47.612;7.610;2022-08-11T10:53:45;98749.38;;;32.68;100.00
9307;BME280;4691;47.612;7.610;2022-08-11T10:56:35;98737.41;;;33.00;100.00
9307;BME280;4691;47.612;7.610;2022-08-11T10:59:26;98746.63;;;33.58;100.00
9307;BME280;4691;47.612;7.610;2022-08-11T11:01:52;98713.72;;;34.02;100.00
9307;BME280;4691;47.612;7.610;2022-08-11T11:04:23;98724.97;;;33.55;100.00
9307;BME280;4691;47.612;7.610;2022-08-11T11:07:03;98723.63;;;33.73;100.00
9307;BME280;4691;47.612;7.610;2022-08-11T11:09:32;98714.00;;;34.52;100.00
9307;BME280;4691;47.612;7.610;2022-08-11T11:12:06;98687.00;;;34.99;100.00
9307;BME280;4691;47.612;7.610;2022-08-11T11:14:53;98685.41;;;35.63;100.00
9307;BME280;4691;47.612;7.610;2022-08-11T11:17:44;98674.69;;;35.85;100.00
9307;BME280;4691;47.612;7.610;2022-08-11T11:20:55;98676.50;;;35.55;100.00
9307;BME280;4691;47.612;7.610;2022-08-11T11:23:35;98654.50;;;36.04;100.00
9307;BME280;4691;47.612;7.610;2022-08-11T11:40:30;98647.88;;;36.34;100.00
9307;BME280;4691;47.612;7.610;2022-08-11T11:46:31;98647.66;;;37.13;100.00
9307;BME280;4691;47.612;7.610;2022-08-11T11:58:27;98607.78;;;37.12;100.00
9307;BME280;4691;47.612;7.610;2022-08-11T12:01:12;98582.25;;;38.00;100.00
9307;BME280;4691;47.612;7.610;2022-08-11T12:29:00;98538.34;;;37.86;100.00
9307;BME280;4691;47.612;7.610;2022-08-11T12:35:34;98512.31;;;37.91;100.00
9307;BME280;4691;47.612;7.610;2022-08-11T13:18:03;98393.38;;;41.09;100.00
9307;BME280;4691;47.612;7.610;2022-08-11T13:57:04;98403.16;;;40.28;100.00
9307;BME280;4691;47.612;7.610;2022-08-11T13:59:30;98374.41;;;40.80;100.00
9307;BME280;4691;47.612;7.610;2022-08-11T14:02:04;98361.22;;;41.24;100.00
9307;BME280;4691;47.612;7.610;2022-08-11T14:10:29;98340.75;;;40.45;100.00
9307;BME280;4691;47.612;7.610;2022-08-11T14:13:00;98329.38;;;41.20;100.00
9307;BME280;4691;47.612;7.610;2022-08-11T14:15:47;98327.47;;;41.41;100.00
9307;BME280;4691;47.612;7.610;2022-08-11T14:18:20;98325.47;;;41.50;100.00
9307;BME280;4691;47.612;7.610;2022-08-11T14:20:56;98316.69;;;41.69;100.00
9307;BME280;4691;47.612;7.610;2022-08-11T14:23:43;98296.53;;;41.76;100.00
9307;BME280;4691;47.612;7.610;2022-08-11T14:26:09;98321.84;;;41.59;100.00
9307;BME280;4691;47.612;7.610;2022-08-11T14:28:50;98314.19;;;41.21;100.00
9307;BME280;4691;47.612;7.610;2022-08-11T14:31:22;98334.13;;;41.28;100.00
9307;BME280;4691;47.612;7.610;2022-08-11T14:33:52;98319.81;;;40.95;100.00
9307;BME280;4691;47.612;7.610;2022-08-11T14:36:20;98329.53;;;40.45;100.00
9307;BME280;4691;47.612;7.610;2022-08-11T14:38:47;98320.59;;;40.08;100.00
9307;BME280;4691;47.612;7.610;2022-08-11T14:41:12;98339.75;;;40.23;100.00
9307;BME280;4691;47.612;7.610;2022-08-11T14:43:57;98321.66;;;40.47;100.00
9307;BME280;4691;47.612;7.610;2022-08-11T14:46:42;98317.22;;;40.81;100.00
9307;BME280;4691;47.612;7.610;2022-08-11T14:49:28;98297.81;;;41.40;100.00
9307;BME280;4691;47.612;7.610;2022-08-11T14:51:54;98278.75;;;41.16;100.00
9307;BME280;4691;47.612;7.610;2022-08-11T14:54:29;98295.47;;;39.46;100.00
9307;BME280;4691;47.612;7.610;2022-08-11T14:57:15;98323.22;;;40.13;100.00
9307;BME280;4691;47.612;7.610;2022-08-11T14:59:42;98286.38;;;40.89;100.00
9307;BME280;4691;47.612;7.610;2022-08-11T15:02:09;98302.94;;;39.59;100.00
9307;BME280;4691;47.612;7.610;2022-08-11T15:04:53;98311.69;;;40.06;100.00
9307;BME280;4691;47.612;7.610;2022-08-11T15:07:20;98279.13;;;40.27;100.00
9307;BME280;4691;47.612;7.610;2022-08-11T15:09:55;98314.31;;;40.11;100.00
9307;BME280;4691;47.612;7.610;2022-08-11T15:12:21;98305.81;;;39.76;100.00
9307;BME280;4691;47.612;7.610;2022-08-11T15:14:48;98299.44;;;39.84;100.00
9307;BME280;4691;47.612;7.610;2022-08-11T15:17:34;98301.06;;;39.46;100.00
9307;BME280;4691;47.612;7.610;2022-08-11T15:20:03;98298.94;;;39.20;100.00
9307;BME280;4691;47.612;7.610;2022-08-11T15:22:48;98315.03;;;37.50;100.00
9307;BME280;4691;47.612;7.610;2022-08-11T15:25:34;98323.75;;;37.90;100.00
9307;BME280;4691;47.612;7.610;2022-08-11T15:28:02;98319.72;;;37.82;100.00
9307;BME280;4691;47.612;7.610;2022-08-11T15:30:50;98298.53;;;38.59;100.00
9307;BME280;4691;47.612;7.610;2022-08-11T15:47:27;98273.91;;;39.06;100.00
9307;BME280;4691;47.612;7.610;2022-08-11T16:15:03;98243.19;;;39.15;100.00
9307;BME280;4691;47.612;7.610;2022-08-11T16:17:51;98239.31;;;39.73;100.00
9307;BME280;4691;47.612;7.610;2022-08-11T16:23:51;98231.69;;;40.40;100.00
9307;BME280;4691;47.612;7.610;2022-08-11T16:30:22;98229.00;;;39.91;100.00
9307;BME280;4691;47.612;7.610;2022-08-11T16:39:17;98226.00;;;41.09;100.00
9307;BME280;4691;47.612;7.610;2022-08-11T17:37:19;98394.31;;;33.44;100.00
9307;BME280;4691;47.612;7.610;2022-08-11T18:05:30;98444.16;;;32.15;100.00
9307;BME280;4691;47.612;7.610;2022-08-11T18:08:19;98454.47;;;31.87;100.00
9307;BME280;4691;47.612;7.610;2022-08-11T18:11:04;98459.78;;;31.56;100.00
9307;BME280;4691;47.612;7.610;2022-08-11T18:13:50;98459.03;;;31.34;100.00
9307;BME280;4691;47.612;7.610;2022-08-11T18:16:34;98459.66;;;31.09;100.00
9307;BME280;4691;47.612;7.610;2022-08-11T18:19:18;98459.66;;;30.81;100.00
9307;BME280;4691;47.612;7.610;2022-08-11T18:22:08;98466.19;;;30.75;100.00
9307;BME280;4691;47.612;7.610;2022-08-11T18:25:06;98471.13;;;30.51;100.00
9307;BME280;4691;47.612;7.610;2022-08-11T18:27:54;98477.16;;;30.48;100.00
9307;BME280;4691;47.612;7.610;2022-08-11T18:30:41;98489.50;;;30.41;100.00
9307;BME280;4691;47.612;7.610;2022-08-11T18:33:26;98480.19;;;30.25;100.00
9307;BME280;4691;47.612;7.610;2022-08-11T18:36:19;98485.78;;;30.13;100.00
9307;BME280;4691;47.612;7.610;2022-08-11T18:39:05;98488.97;;;30.05;100.00
9307;BME280;4691;47.612;7.610;2022-08-11T18:41:52;98490.38;;;29.85;100.00
9307;BME280;4691;47.612;7.610;2022-08-11T18:44:39;98505.25;;;29.67;100.00
9307;BME280;4691;47.612;7.610;2022-08-11T18:47:24;98501.94;;;29.53;100.00
9307;BME280;4691;47.612;7.610;2022-08-11T18:50:11;98513.22;;;29.52;100.00
9307;BME280;4691;47.612;7.610;2022-08-11T18:52:59;98511.38;;;29.41;100.00
9307;BME280;4691;47.612;7.610;2022-08-11T18:55:47;98513.34;;;29.28;100.00
9307;BME280;4691;47.612;7.610;2022-08-11T18:58:32;98520.78;;;29.28;100.00
9307;BME280;4691;47.612;7.610;2022-08-11T19:01:19;98517.63;;;29.19;100.00
9307;BME280;4691;47.612;7.610;2022-08-11T19:04:05;98529.50;;;29.08;100.00
9307;BME280;4691;47.612;7.610;2022-08-11T19:06:59;98527.28;;;28.93;100.00
9307;BME280;4691;47.612;7.610;2022-08-11T19:09:45;98540.94;;;28.88;100.00
9307;BME280;4691;47.612;7.610;2022-08-11T19:12:33;98538.94;;;28.83;100.00
9307;BME280;4691;47.612;7.610;2022-08-11T19:15:19;98536.91;;;28.79;100.00
9307;BME280;4691;47.612;7.610;2022-08-11T19:18:04;98555.34;;;28.66;100.00
9307;BME280;4691;47.612;7.610;2022-08-11T19:20:50;98556.66;;;28.64;100.00
9307;BME280;4691;47.612;7.610;2022-08-11T19:23:43;98551.81;;;28.54;100.00
9307;BME280;4691;47.612;7.610;2022-08-11T19:26:28;98571.41;;;28.46;100.00
9307;BME280;4691;47.612;7.610;2022-08-11T19:29:14;98566.38;;;28.43;100.00
9307;BME280;4691;47.612;7.610;2022-08-11T19:32:07;98566.75;;;28.35;100.00
9307;BME280;4691;47.612;7.610;2022-08-11T19:35:00;98575.97;;;28.29;100.00
9307;BME280;4691;47.612;7.610;2022-08-11T19:37:46;98579.44;;;28.24;100.00
9307;BME280;4691;47.612;7.610;2022-08-11T19:40:33;98581.25;;;28.18;100.00
9307;BME280;4691;47.612;7.610;2022-08-11T19:43:18;98580.50;;;28.11;100.00
9307;BME280;4691;47.612;7.610;2022-08-11T19:46:04;98583.25;;;27.99;100.00
9307;BME280;4691;47.612;7.610;2022-08-11T19:48:54;98587.19;;;27.92;100.00
9307;BME280;4691;47.612;7.610;2022-08-11T19:51:41;98577.50;;;27.89;100.00
9307;BME280;4691;47.612;7.610;2022-08-11T19:54:29;98580.97;;;27.85;100.00
9307;BME280;4691;47.612;7.610;2022-08-11T19:57:16;98586.09;;;27.81;100.00
9307;BME280;4691;47.612;7.610;2022-08-11T20:00:12;98592.28;;;27.76;100.00
9307;BME280;4691;47.612;7.610;2022-08-11T20:03:02;98596.44;;;27.67;100.00
9307;BME280;4691;47.612;7.610;2022-08-11T20:05:47;98601.69;;;27.57;100.00
9307;BME280;4691;47.612;7.610;2022-08-11T20:08:35;98611.78;;;27.45;100.00
9307;BME280;4691;47.612;7.610;2022-08-11T20:11:20;98606.63;;;27.36;100.00
9307;BME280;4691;47.612;7.610;2022-08-11T20:14:07;98614.25;;;27.34;100.00
9307;BME280;4691;47.612;7.610;2022-08-11T20:16:56;98619.81;;;27.28;100.00
9307;BME280;4691;47.612;7.610;2022-08-11T20:19:41;98618.03;;;27.22;100.00
9307;BME280;4691;47.612;7.610;2022-08-11T20:22:26;98616.81;;;27.18;100.00
9307;BME280;4691;47.612;7.610;2022-08-11T20:25:13;98620.25;;;27.13;100.00
9307;BME280;4691;47.612;7.610;2022-08-11T20:27:57;98628.41;;;27.01;100.00
9307;BME280;4691;47.612;7.610;2022-08-11T20:30:44;98631.81;;;26.97;100.00
9307;BME280;4691;47.612;7.610;2022-08-11T20:33:30;98632.28;;;26.93;100.00
9307;BME280;4691;47.612;7.610;2022-08-11T20:36:16;98631.78;;;26.85;100.00
9307;BME280;4691;47.612;7.610;2022-08-11T20:39:00;98644.94;;;26.76;100.00
9307;BME280;4691;47.612;7.610;2022-08-11T20:41:55;98646.06;;;26.68;100.00
9307;BME280;4691;47.612;7.610;2022-08-11T20:44:41;98645.09;;;26.63;100.00
9307;BME280;4691;47.612;7.610;2022-08-11T20:47:26;98650.88;;;26.55;100.00
9307;BME280;4691;47.612;7.610;2022-08-11T20:50:11;98649.44;;;26.52;100.00
9307;BME280;4691;47.612;7.610;2022-08-11T20:52:58;98651.97;;;26.47;100.00
9307;BME280;4691;47.612;7.610;2022-08-11T20:55:43;98654.56;;;26.42;100.00
9307;BME280;4691;47.612;7.610;2022-08-11T20:58:28;98654.63;;;26.35;100.00
9307;BME280;4691;47.612;7.610;2022-08-11T21:01:15;98648.34;;;26.28;100.00
9307;BME280;4691;47.612;7.610;2022-08-11T21:03:59;98652.00;;;26.22;100.00
9307;BME280;4691;47.612;7.610;2022-08-11T21:06:45;98660.31;;;26.15;100.00
9307;BME280;4691;47.612;7.610;2022-08-11T21:09:30;98656.31;;;26.11;100.00
9307;BME280;4691;47.612;7.610;2022-08-11T21:12:15;98661.19;;;26.09;100.00
9307;BME280;4691;47.612;7.610;2022-08-11T21:15:00;98660.97;;;26.11;100.00
9307;BME280;4691;47.612;7.610;2022-08-11T21:17:46;98656.78;;;26.08;100.00
9307;BME280;4691;47.612;7.610;2022-08-11T21:20:32;98655.31;;;26.05;100.00
9307;BME280;4691;47.612;7.610;2022-08-11T21:23:22;98656.59;;;26.03;100.00
9307;BME280;4691;47.612;7.610;2022-08-11T21:26:10;98665.81;;;26.09;100.00
9307;BME280;4691;47.612;7.610;2022-08-11T21:28:56;98657.00;;;26.06;100.00
9307;BME280;4691;47.612;7.610;2022-08-11T21:31:43;98667.94;;;26.06;100.00
9307;BME280;4691;47.612;7.610;2022-08-11T21:34:30;98666.28;;;26.05;100.00
9307;BME280;4691;47.612;7.610;2022-08-11T21:37:19;98668.84;;;26.00;100.00